Skip Navigation Links Skip Navigation Links

Current Weather

Port Hedland Pardoo, Australia

For information only: do not use for flight planning or navigation.
Latest weather
Observation time Thursday, January 27, 2022 4:30 PM AEDT
Local time Thursday, January 27, 2022 4:54 PM AEDT
Flight conditions Visual Meteorological Conditions
Winds
Wind direction Northwest (320°)
Wind speed 21 mph
Visibility 6.2 mi.
Sky condition
Ceiling unlimited
Temperature 91°F
Dewpoint 77°F
Altimeter 29.59 in.Hg
Derived measurements
Relative humidity 63%
Heat index 105°F
Density altitude 2884 ft.
Remarks
Fully automated report.
METAR YPPD 270530Z AUTO 32018KT 9999 // NCD 33/25 Q1002 RF00.0/000.2

Settings

Location code

InnerDrive.Weather 4.0.6770.0 Release CLR 4.0.30319.42000
Copyright ©2018 Inner Drive Technology. All rights reserved. Portions Copyright ©1986-2018 David Braverman.

Find weather

Site navigation


Skip Navigation Links

Place info

Page info

PayPal - The safer, easier way to pay online!

Return home.

Copyright ©2022 Inner Drive Technology. Purveyors of fine, hand-crafted computer software. Page printed 2022-01-27T05:54:17 UTC.